sensor_id;sensor_type;location;lat;lon;timestamp;P1;durP1;ratioP1;P2;durP2;ratioP2
25301;SDS011;13243;50.888;4.724;2022-11-06T00:03:22;5.22;;;2.65;;
25301;SDS011;13243;50.888;4.724;2022-11-06T00:08:26;8.75;;;2.85;;
25301;SDS011;13243;50.888;4.724;2022-11-06T00:13:46;8.38;;;2.72;;
25301;SDS011;13243;50.888;4.724;2022-11-06T00:18:48;5.18;;;2.30;;
25301;SDS011;13243;50.888;4.724;2022-11-06T00:23:50;9.52;;;2.50;;
25301;SDS011;13243;50.888;4.724;2022-11-06T00:28:53;8.80;;;2.50;;
25301;SDS011;13243;50.888;4.724;2022-11-06T00:33:57;10.85;;;2.95;;
25301;SDS011;13243;50.888;4.724;2022-11-06T00:39:00;12.82;;;2.83;;
25301;SDS011;13243;50.888;4.724;2022-11-06T00:44:02;7.88;;;2.70;;
25301;SDS011;13243;50.888;4.724;2022-11-06T00:49:04;14.18;;;2.67;;
25301;SDS011;13243;50.888;4.724;2022-11-06T00:54:08;9.23;;;2.40;;
25301;SDS011;13243;50.888;4.724;2022-11-06T00:59:11;9.10;;;2.63;;
25301;SDS011;13243;50.888;4.724;2022-11-06T01:04:18;8.40;;;2.63;;
25301;SDS011;13243;50.888;4.724;2022-11-06T01:09:22;4.53;;;2.10;;
25301;SDS011;13243;50.888;4.724;2022-11-06T01:14:26;11.55;;;2.75;;
25301;SDS011;13243;50.888;4.724;2022-11-06T01:19:28;16.73;;;2.03;;
25301;SDS011;13243;50.888;4.724;2022-11-06T01:24:30;5.35;;;2.17;;
25301;SDS011;13243;50.888;4.724;2022-11-06T01:29:32;5.75;;;1.63;;
25301;SDS011;13243;50.888;4.724;2022-11-06T01:34:34;4.30;;;1.88;;
25301;SDS011;13243;50.888;4.724;2022-11-06T01:39:36;5.78;;;2.20;;
25301;SDS011;13243;50.888;4.724;2022-11-06T01:49:42;7.15;;;2.47;;
25301;SDS011;13243;50.888;4.724;2022-11-06T01:54:45;11.10;;;2.40;;
25301;SDS011;13243;50.888;4.724;2022-11-06T01:59:51;10.88;;;2.80;;
25301;SDS011;13243;50.888;4.724;2022-11-06T02:04:55;8.25;;;2.42;;
25301;SDS011;13243;50.888;4.724;2022-11-06T02:09:57;9.82;;;2.60;;
25301;SDS011;13243;50.888;4.724;2022-11-06T02:26:19;6.95;;;2.40;;
25301;SDS011;13243;50.888;4.724;2022-11-06T02:31:46;7.93;;;2.78;;
25301;SDS011;13243;50.888;4.724;2022-11-06T02:36:56;3.92;;;2.03;;
25301;SDS011;13243;50.888;4.724;2022-11-06T02:42:02;16.47;;;2.77;;
25301;SDS011;13243;50.888;4.724;2022-11-06T02:47:09;6.05;;;1.90;;
25301;SDS011;13243;50.888;4.724;2022-11-06T02:52:16;8.55;;;2.45;;
25301;SDS011;13243;50.888;4.724;2022-11-06T02:57:22;8.65;;;2.60;;
25301;SDS011;13243;50.888;4.724;2022-11-06T03:02:28;4.38;;;1.90;;
25301;SDS011;13243;50.888;4.724;2022-11-06T03:07:36;9.02;;;2.50;;
25301;SDS011;13243;50.888;4.724;2022-11-06T03:12:48;6.80;;;2.28;;
25301;SDS011;13243;50.888;4.724;2022-11-06T03:23:19;9.10;;;2.05;;
25301;SDS011;13243;50.888;4.724;2022-11-06T03:28:31;9.20;;;2.53;;
25301;SDS011;13243;50.888;4.724;2022-11-06T03:33:42;7.82;;;2.28;;
25301;SDS011;13243;50.888;4.724;2022-11-06T03:38:51;7.90;;;2.30;;
25301;SDS011;13243;50.888;4.724;2022-11-06T03:44:05;5.95;;;1.75;;
25301;SDS011;13243;50.888;4.724;2022-11-06T03:49:12;10.52;;;3.20;;
25301;SDS011;13243;50.888;4.724;2022-11-06T03:54:22;5.95;;;2.60;;
25301;SDS011;13243;50.888;4.724;2022-11-06T03:59:27;4.97;;;2.00;;
25301;SDS011;13243;50.888;4.724;2022-11-06T04:04:36;3.15;;;1.88;;
25301;SDS011;13243;50.888;4.724;2022-11-06T04:09:43;6.88;;;2.08;;
25301;SDS011;13243;50.888;4.724;2022-11-06T04:15:11;5.93;;;1.85;;
25301;SDS011;13243;50.888;4.724;2022-11-06T04:20:18;7.07;;;2.30;;
25301;SDS011;13243;50.888;4.724;2022-11-06T04:26:25;6.18;;;2.47;;
25301;SDS011;13243;50.888;4.724;2022-11-06T04:31:50;12.20;;;2.63;;
25301;SDS011;13243;50.888;4.724;2022-11-06T04:37:11;6.10;;;2.72;;
25301;SDS011;13243;50.888;4.724;2022-11-06T04:47:46;4.15;;;2.28;;
25301;SDS011;13243;50.888;4.724;2022-11-06T04:52:49;5.00;;;2.20;;
25301;SDS011;13243;50.888;4.724;2022-11-06T04:57:53;11.23;;;2.70;;
25301;SDS011;13243;50.888;4.724;2022-11-06T05:02:55;8.55;;;2.35;;
25301;SDS011;13243;50.888;4.724;2022-11-06T05:07:56;6.40;;;2.38;;
25301;SDS011;13243;50.888;4.724;2022-11-06T05:12:58;11.07;;;2.83;;
25301;SDS011;13243;50.888;4.724;2022-11-06T05:18:00;5.47;;;2.38;;
25301;SDS011;13243;50.888;4.724;2022-11-06T05:23:02;9.73;;;2.45;;
25301;SDS011;13243;50.888;4.724;2022-11-06T05:28:04;4.00;;;2.60;;
25301;SDS011;13243;50.888;4.724;2022-11-06T05:33:07;4.72;;;2.00;;
25301;SDS011;13243;50.888;4.724;2022-11-06T05:38:09;8.35;;;2.53;;
25301;SDS011;13243;50.888;4.724;2022-11-06T05:43:12;5.07;;;2.00;;
25301;SDS011;13243;50.888;4.724;2022-11-06T05:48:14;5.40;;;2.25;;
25301;SDS011;13243;50.888;4.724;2022-11-06T05:53:16;8.98;;;2.63;;
25301;SDS011;13243;50.888;4.724;2022-11-06T05:58:18;6.68;;;2.40;;
25301;SDS011;13243;50.888;4.724;2022-11-06T06:03:20;4.70;;;1.80;;
25301;SDS011;13243;50.888;4.724;2022-11-06T06:08:22;7.05;;;2.00;;
25301;SDS011;13243;50.888;4.724;2022-11-06T06:13:24;15.27;;;3.00;;
25301;SDS011;13243;50.888;4.724;2022-11-06T06:18:26;6.03;;;2.25;;
25301;SDS011;13243;50.888;4.724;2022-11-06T06:23:27;3.83;;;2.05;;
25301;SDS011;13243;50.888;4.724;2022-11-06T06:28:29;9.32;;;2.83;;
25301;SDS011;13243;50.888;4.724;2022-11-06T06:33:32;5.30;;;2.25;;
25301;SDS011;13243;50.888;4.724;2022-11-06T06:38:33;5.47;;;1.90;;
25301;SDS011;13243;50.888;4.724;2022-11-06T06:43:35;5.72;;;2.15;;
25301;SDS011;13243;50.888;4.724;2022-11-06T06:48:37;6.90;;;1.88;;
25301;SDS011;13243;50.888;4.724;2022-11-06T06:53:39;9.13;;;2.10;;
25301;SDS011;13243;50.888;4.724;2022-11-06T06:58:40;5.82;;;1.80;;
25301;SDS011;13243;50.888;4.724;2022-11-06T07:03:42;7.53;;;2.35;;
25301;SDS011;13243;50.888;4.724;2022-11-06T07:08:44;4.82;;;2.45;;
25301;SDS011;13243;50.888;4.724;2022-11-06T07:13:46;7.18;;;1.85;;
25301;SDS011;13243;50.888;4.724;2022-11-06T07:18:48;5.20;;;1.80;;
25301;SDS011;13243;50.888;4.724;2022-11-06T07:23:49;6.53;;;1.90;;
25301;SDS011;13243;50.888;4.724;2022-11-06T07:28:51;5.80;;;1.42;;
25301;SDS011;13243;50.888;4.724;2022-11-06T07:33:53;6.32;;;2.28;;
25301;SDS011;13243;50.888;4.724;2022-11-06T07:38:56;3.25;;;1.63;;
25301;SDS011;13243;50.888;4.724;2022-11-06T07:43:58;6.95;;;1.90;;
25301;SDS011;13243;50.888;4.724;2022-11-06T07:49:00;10.65;;;2.50;;
25301;SDS011;13243;50.888;4.724;2022-11-06T07:54:01;7.25;;;1.80;;
25301;SDS011;13243;50.888;4.724;2022-11-06T07:59:03;4.03;;;1.60;;
25301;SDS011;13243;50.888;4.724;2022-11-06T08:04:05;2.15;;;1.48;;
25301;SDS011;13243;50.888;4.724;2022-11-06T08:09:07;10.48;;;1.80;;
25301;SDS011;13243;50.888;4.724;2022-11-06T08:14:09;4.38;;;1.75;;
25301;SDS011;13243;50.888;4.724;2022-11-06T08:19:11;7.30;;;2.22;;
25301;SDS011;13243;50.888;4.724;2022-11-06T08:24:13;6.47;;;2.22;;
25301;SDS011;13243;50.888;4.724;2022-11-06T08:29:21;5.47;;;2.33;;
25301;SDS011;13243;50.888;4.724;2022-11-06T08:34:23;3.22;;;2.17;;
25301;SDS011;13243;50.888;4.724;2022-11-06T08:39:25;5.47;;;2.30;;
25301;SDS011;13243;50.888;4.724;2022-11-06T08:44:27;3.85;;;2.00;;
25301;SDS011;13243;50.888;4.724;2022-11-06T08:49:29;4.18;;;2.20;;
25301;SDS011;13243;50.888;4.724;2022-11-06T08:54:30;9.88;;;1.92;;
25301;SDS011;13243;50.888;4.724;2022-11-06T08:59:32;5.93;;;1.70;;
25301;SDS011;13243;50.888;4.724;2022-11-06T09:04:34;8.93;;;2.10;;
25301;SDS011;13243;50.888;4.724;2022-11-06T09:09:41;4.05;;;1.80;;
25301;SDS011;13243;50.888;4.724;2022-11-06T09:14:43;4.80;;;1.92;;
25301;SDS011;13243;50.888;4.724;2022-11-06T09:19:45;6.32;;;1.92;;
25301;SDS011;13243;50.888;4.724;2022-11-06T09:24:47;2.47;;;1.50;;
25301;SDS011;13243;50.888;4.724;2022-11-06T09:30:04;7.97;;;2.42;;
25301;SDS011;13243;50.888;4.724;2022-11-06T09:35:06;5.43;;;2.13;;
25301;SDS011;13243;50.888;4.724;2022-11-06T09:40:30;4.03;;;1.52;;
25301;SDS011;13243;50.888;4.724;2022-11-06T09:45:42;8.85;;;2.22;;
25301;SDS011;13243;50.888;4.724;2022-11-06T09:50:51;2.53;;;1.30;;
25301;SDS011;13243;50.888;4.724;2022-11-06T09:55:59;6.00;;;1.52;;
25301;SDS011;13243;50.888;4.724;2022-11-06T10:01:14;4.32;;;1.63;;
25301;SDS011;13243;50.888;4.724;2022-11-06T10:06:26;9.00;;;2.17;;
25301;SDS011;13243;50.888;4.724;2022-11-06T10:17:06;5.88;;;1.65;;
25301;SDS011;13243;50.888;4.724;2022-11-06T10:22:29;6.55;;;1.67;;
25301;SDS011;13243;50.888;4.724;2022-11-06T10:27:40;10.68;;;1.90;;
25301;SDS011;13243;50.888;4.724;2022-11-06T10:38:09;7.97;;;2.00;;
25301;SDS011;13243;50.888;4.724;2022-11-06T10:48:42;8.95;;;2.05;;
25301;SDS011;13243;50.888;4.724;2022-11-06T10:59:07;7.53;;;1.80;;
25301;SDS011;13243;50.888;4.724;2022-11-06T11:04:09;4.22;;;1.50;;
25301;SDS011;13243;50.888;4.724;2022-11-06T11:14:30;5.60;;;1.40;;
25301;SDS011;13243;50.888;4.724;2022-11-06T11:19:36;3.20;;;1.35;;
25301;SDS011;13243;50.888;4.724;2022-11-06T11:30:04;3.10;;;1.30;;
25301;SDS011;13243;50.888;4.724;2022-11-06T11:35:07;6.15;;;1.50;;
25301;SDS011;13243;50.888;4.724;2022-11-06T11:45:23;2.90;;;1.35;;
25301;SDS011;13243;50.888;4.724;2022-11-06T11:50:29;3.45;;;1.17;;
25301;SDS011;13243;50.888;4.724;2022-11-06T11:55:35;3.63;;;1.33;;
25301;SDS011;13243;50.888;4.724;2022-11-06T12:00:54;8.80;;;1.30;;
25301;SDS011;13243;50.888;4.724;2022-11-06T12:06:06;4.88;;;1.50;;
25301;SDS011;13243;50.888;4.724;2022-11-06T12:11:17;4.47;;;1.48;;
25301;SDS011;13243;50.888;4.724;2022-11-06T12:16:22;3.67;;;1.23;;
25301;SDS011;13243;50.888;4.724;2022-11-06T12:21:26;5.25;;;1.63;;
25301;SDS011;13243;50.888;4.724;2022-11-06T12:26:43;6.85;;;1.15;;
25301;SDS011;13243;50.888;4.724;2022-11-06T12:43:11;6.78;;;1.42;;
25301;SDS011;13243;50.888;4.724;2022-11-06T12:48:21;4.20;;;1.90;;
25301;SDS011;13243;50.888;4.724;2022-11-06T12:58:56;5.00;;;1.25;;
25301;SDS011;13243;50.888;4.724;2022-11-06T13:04:08;6.40;;;1.67;;
25301;SDS011;13243;50.888;4.724;2022-11-06T13:09:30;3.60;;;1.42;;
25301;SDS011;13243;50.888;4.724;2022-11-06T13:20:00;3.05;;;1.52;;
25301;SDS011;13243;50.888;4.724;2022-11-06T13:25:52;5.32;;;2.05;;
25301;SDS011;13243;50.888;4.724;2022-11-06T13:30:43;8.55;;;1.50;;
25301;SDS011;13243;50.888;4.724;2022-11-06T13:35:46;2.75;;;1.90;;
25301;SDS011;13243;50.888;4.724;2022-11-06T13:40:49;6.50;;;1.40;;
25301;SDS011;13243;50.888;4.724;2022-11-06T13:56:31;7.35;;;1.88;;
25301;SDS011;13243;50.888;4.724;2022-11-06T14:06:57;9.27;;;1.90;;
25301;SDS011;13243;50.888;4.724;2022-11-06T14:12:02;7.57;;;2.08;;
25301;SDS011;13243;50.888;4.724;2022-11-06T14:17:18;3.30;;;1.75;;
25301;SDS011;13243;50.888;4.724;2022-11-06T14:22:33;3.78;;;1.73;;
25301;SDS011;13243;50.888;4.724;2022-11-06T14:33:01;4.38;;;1.40;;
25301;SDS011;13243;50.888;4.724;2022-11-06T14:43:30;8.15;;;2.28;;
25301;SDS011;13243;50.888;4.724;2022-11-06T14:48:35;2.45;;;1.30;;
25301;SDS011;13243;50.888;4.724;2022-11-06T14:53:49;4.53;;;1.75;;
25301;SDS011;13243;50.888;4.724;2022-11-06T14:58:58;3.17;;;1.65;;
25301;SDS011;13243;50.888;4.724;2022-11-06T15:04:03;5.40;;;1.90;;
25301;SDS011;13243;50.888;4.724;2022-11-06T15:09:11;2.85;;;1.60;;
25301;SDS011;13243;50.888;4.724;2022-11-06T15:19:26;4.53;;;1.42;;
25301;SDS011;13243;50.888;4.724;2022-11-06T15:24:40;5.00;;;1.35;;
25301;SDS011;13243;50.888;4.724;2022-11-06T15:29:54;3.30;;;1.65;;
25301;SDS011;13243;50.888;4.724;2022-11-06T15:40:05;8.40;;;1.70;;
25301;SDS011;13243;50.888;4.724;2022-11-06T15:45:22;3.83;;;1.90;;
25301;SDS011;13243;50.888;4.724;2022-11-06T15:50:27;6.53;;;2.00;;
25301;SDS011;13243;50.888;4.724;2022-11-06T15:55:31;4.47;;;1.83;;
25301;SDS011;13243;50.888;4.724;2022-11-06T16:00:35;5.68;;;1.80;;
25301;SDS011;13243;50.888;4.724;2022-11-06T16:05:41;4.13;;;1.70;;
25301;SDS011;13243;50.888;4.724;2022-11-06T16:10:44;6.97;;;2.22;;
25301;SDS011;13243;50.888;4.724;2022-11-06T16:15:56;6.18;;;2.00;;
25301;SDS011;13243;50.888;4.724;2022-11-06T16:31:33;4.90;;;2.10;;
25301;SDS011;13243;50.888;4.724;2022-11-06T16:42:01;4.13;;;2.10;;
25301;SDS011;13243;50.888;4.724;2022-11-06T16:57:46;6.65;;;2.05;;
25301;SDS011;13243;50.888;4.724;2022-11-06T17:03:00;2.85;;;1.83;;
25301;SDS011;13243;50.888;4.724;2022-11-06T17:13:36;8.18;;;2.72;;
25301;SDS011;13243;50.888;4.724;2022-11-06T17:18:38;6.47;;;2.95;;
25301;SDS011;13243;50.888;4.724;2022-11-06T17:23:40;3.40;;;2.13;;
25301;SDS011;13243;50.888;4.724;2022-11-06T17:28:42;9.00;;;2.45;;
25301;SDS011;13243;50.888;4.724;2022-11-06T17:33:44;8.93;;;2.60;;
25301;SDS011;13243;50.888;4.724;2022-11-06T17:38:46;8.98;;;4.32;;
25301;SDS011;13243;50.888;4.724;2022-11-06T17:43:48;12.63;;;2.70;;
25301;SDS011;13243;50.888;4.724;2022-11-06T17:48:52;3.75;;;2.30;;
25301;SDS011;13243;50.888;4.724;2022-11-06T17:53:54;8.38;;;2.58;;
25301;SDS011;13243;50.888;4.724;2022-11-06T17:58:56;5.28;;;2.78;;
25301;SDS011;13243;50.888;4.724;2022-11-06T18:03:57;5.57;;;2.35;;
25301;SDS011;13243;50.888;4.724;2022-11-06T18:09:02;5.93;;;2.60;;
25301;SDS011;13243;50.888;4.724;2022-11-06T18:14:07;5.55;;;2.28;;
25301;SDS011;13243;50.888;4.724;2022-11-06T18:19:10;4.35;;;2.42;;
25301;SDS011;13243;50.888;4.724;2022-11-06T18:24:15;6.13;;;2.80;;
25301;SDS011;13243;50.888;4.724;2022-11-06T18:29:17;5.55;;;2.88;;
25301;SDS011;13243;50.888;4.724;2022-11-06T18:34:19;6.70;;;2.80;;
25301;SDS011;13243;50.888;4.724;2022-11-06T18:39:21;8.02;;;3.13;;
25301;SDS011;13243;50.888;4.724;2022-11-06T18:44:24;7.95;;;3.17;;
25301;SDS011;13243;50.888;4.724;2022-11-06T18:49:26;6.05;;;3.35;;
25301;SDS011;13243;50.888;4.724;2022-11-06T18:54:28;8.27;;;3.30;;
25301;SDS011;13243;50.888;4.724;2022-11-06T18:59:31;7.70;;;3.20;;
25301;SDS011;13243;50.888;4.724;2022-11-06T19:04:36;7.93;;;3.33;;
25301;SDS011;13243;50.888;4.724;2022-11-06T19:09:38;4.85;;;2.80;;
25301;SDS011;13243;50.888;4.724;2022-11-06T19:14:40;7.22;;;3.30;;
25301;SDS011;13243;50.888;4.724;2022-11-06T19:19:45;9.55;;;3.00;;
25301;SDS011;13243;50.888;4.724;2022-11-06T19:24:48;5.28;;;3.28;;
25301;SDS011;13243;50.888;4.724;2022-11-06T19:29:50;14.68;;;3.67;;
25301;SDS011;13243;50.888;4.724;2022-11-06T19:34:52;9.23;;;3.67;;
25301;SDS011;13243;50.888;4.724;2022-11-06T19:39:54;7.95;;;3.55;;
25301;SDS011;13243;50.888;4.724;2022-11-06T19:44:59;5.85;;;3.40;;
25301;SDS011;13243;50.888;4.724;2022-11-06T19:50:02;9.82;;;4.03;;
25301;SDS011;13243;50.888;4.724;2022-11-06T19:55:05;8.32;;;2.95;;
25301;SDS011;13243;50.888;4.724;2022-11-06T20:00:27;7.75;;;3.67;;
25301;SDS011;13243;50.888;4.724;2022-11-06T20:05:29;9.63;;;3.67;;
25301;SDS011;13243;50.888;4.724;2022-11-06T20:10:31;7.15;;;3.28;;
25301;SDS011;13243;50.888;4.724;2022-11-06T20:15:36;5.35;;;3.67;;
25301;SDS011;13243;50.888;4.724;2022-11-06T20:20:37;5.55;;;2.80;;
25301;SDS011;13243;50.888;4.724;2022-11-06T20:25:39;4.72;;;3.20;;
25301;SDS011;13243;50.888;4.724;2022-11-06T20:30:42;5.53;;;3.28;;
25301;SDS011;13243;50.888;4.724;2022-11-06T20:35:44;8.98;;;3.63;;
25301;SDS011;13243;50.888;4.724;2022-11-06T20:40:46;6.72;;;3.15;;
25301;SDS011;13243;50.888;4.724;2022-11-06T20:45:48;6.18;;;2.97;;
25301;SDS011;13243;50.888;4.724;2022-11-06T20:50:57;9.02;;;2.78;;
25301;SDS011;13243;50.888;4.724;2022-11-06T20:56:01;10.60;;;3.20;;
25301;SDS011;13243;50.888;4.724;2022-11-06T21:01:06;7.03;;;2.90;;
25301;SDS011;13243;50.888;4.724;2022-11-06T21:06:11;9.15;;;2.83;;
25301;SDS011;13243;50.888;4.724;2022-11-06T21:11:16;10.35;;;3.15;;
25301;SDS011;13243;50.888;4.724;2022-11-06T21:16:21;6.07;;;2.42;;
25301;SDS011;13243;50.888;4.724;2022-11-06T21:21:28;8.20;;;3.13;;
25301;SDS011;13243;50.888;4.724;2022-11-06T21:26:34;5.68;;;2.90;;
25301;SDS011;13243;50.888;4.724;2022-11-06T21:31:38;5.65;;;2.63;;
25301;SDS011;13243;50.888;4.724;2022-11-06T21:36:48;5.80;;;2.83;;
25301;SDS011;13243;50.888;4.724;2022-11-06T21:41:50;12.13;;;3.15;;
25301;SDS011;13243;50.888;4.724;2022-11-06T21:46:52;6.32;;;2.50;;
25301;SDS011;13243;50.888;4.724;2022-11-06T21:51:54;4.85;;;2.78;;
25301;SDS011;13243;50.888;4.724;2022-11-06T21:57:16;6.72;;;3.03;;
25301;SDS011;13243;50.888;4.724;2022-11-06T22:02:17;6.90;;;3.03;;
25301;SDS011;13243;50.888;4.724;2022-11-06T22:07:19;9.05;;;3.10;;
25301;SDS011;13243;50.888;4.724;2022-11-06T22:12:21;7.75;;;2.95;;
25301;SDS011;13243;50.888;4.724;2022-11-06T22:17:24;8.40;;;2.90;;
25301;SDS011;13243;50.888;4.724;2022-11-06T22:22:25;6.22;;;3.25;;
25301;SDS011;13243;50.888;4.724;2022-11-06T22:27:27;8.18;;;2.83;;
25301;SDS011;13243;50.888;4.724;2022-11-06T22:32:29;8.68;;;3.42;;
25301;SDS011;13243;50.888;4.724;2022-11-06T22:37:31;8.32;;;3.40;;
25301;SDS011;13243;50.888;4.724;2022-11-06T22:42:33;7.70;;;3.13;;
25301;SDS011;13243;50.888;4.724;2022-11-06T22:47:35;6.90;;;2.65;;
25301;SDS011;13243;50.888;4.724;2022-11-06T22:52:36;5.95;;;2.55;;
25301;SDS011;13243;50.888;4.724;2022-11-06T22:57:38;9.93;;;3.15;;
25301;SDS011;13243;50.888;4.724;2022-11-06T23:02:40;4.00;;;2.80;;
25301;SDS011;13243;50.888;4.724;2022-11-06T23:07:42;7.75;;;2.95;;
25301;SDS011;13243;50.888;4.724;2022-11-06T23:12:44;7.85;;;3.17;;
25301;SDS011;13243;50.888;4.724;2022-11-06T23:17:45;5.68;;;2.28;;
25301;SDS011;13243;50.888;4.724;2022-11-06T23:22:48;5.18;;;2.65;;
25301;SDS011;13243;50.888;4.724;2022-11-06T23:27:51;10.93;;;2.33;;
25301;SDS011;13243;50.888;4.724;2022-11-06T23:32:53;6.20;;;2.33;;
25301;SDS011;13243;50.888;4.724;2022-11-06T23:37:55;8.43;;;2.72;;
25301;SDS011;13243;50.888;4.724;2022-11-06T23:42:57;4.25;;;2.13;;
25301;SDS011;13243;50.888;4.724;2022-11-06T23:47:59;12.02;;;2.83;;
25301;SDS011;13243;50.888;4.724;2022-11-06T23:53:07;7.28;;;2.50;;
25301;SDS011;13243;50.888;4.724;2022-11-06T23:58:09;7.35;;;2.30;;
